createdAt,value
2019-01-17T00:00:29.912Z,2.30
2019-01-17T00:03:16.445Z,2.30
2019-01-17T00:05:59.052Z,2.50
2019-01-17T00:08:35.532Z,2.70
2019-01-17T00:11:14.672Z,2.70
2019-01-17T00:13:51.079Z,2.80
2019-01-17T00:16:39.582Z,2.80
2019-01-17T00:19:16.075Z,2.80
2019-01-17T00:21:52.643Z,2.90
2019-01-17T00:24:39.460Z,3.00
2019-01-17T00:27:09.963Z,3.00
2019-01-17T00:29:56.617Z,3.00
2019-01-17T00:32:43.101Z,3.10
2019-01-17T00:35:13.698Z,3.20
2019-01-17T00:37:59.135Z,3.20
2019-01-17T00:40:32.348Z,3.10
2019-01-17T00:43:05.639Z,3.00
2019-01-17T00:45:39.002Z,2.90
2019-01-17T00:48:09.537Z,2.90
2019-01-17T00:50:45.905Z,2.80
2019-01-17T00:53:19.380Z,2.70
2019-01-17T00:55:55.671Z,2.60
2019-01-17T00:58:28.945Z,2.60
2019-01-17T01:01:02.282Z,2.60
2019-01-17T01:03:32.812Z,2.60
2019-01-17T01:06:09.108Z,2.50
2019-01-17T01:08:42.389Z,2.50
2019-01-17T01:11:12.987Z,2.40
2019-01-17T01:13:46.319Z,2.30
2019-01-17T01:16:19.725Z,2.20
2019-01-17T01:19:08.087Z,2.30
2019-01-17T01:21:42.296Z,2.30
2019-01-17T01:24:27.603Z,2.20
2019-01-17T01:26:58.199Z,2.20
2019-01-17T01:29:28.820Z,2.10
2019-01-17T01:32:02.137Z,2.10
2019-01-17T01:34:32.673Z,2.10
2019-01-17T01:37:05.793Z,1.90
2019-01-17T01:39:38.824Z,1.90
2019-01-17T01:42:09.430Z,1.80
2019-01-17T01:44:42.775Z,1.90
2019-01-17T01:47:15.864Z,1.90
2019-01-17T01:50:04.453Z,1.90
2019-01-17T01:52:37.772Z,2.10
2019-01-17T01:55:06.714Z,2.10
2019-01-17T01:57:35.712Z,2.20
2019-01-17T02:00:08.010Z,2.40
2019-01-17T02:02:37.005Z,2.60
2019-01-17T02:05:06.043Z,2.90
2019-01-17T02:07:35.046Z,3.10
2019-01-17T02:10:04.779Z,3.20
2019-01-17T02:12:33.719Z,3.30
2019-01-17T02:15:02.814Z,3.40
2019-01-17T02:17:31.840Z,3.40
2019-01-17T02:20:01.126Z,3.40
2019-01-17T02:22:30.089Z,3.60
2019-01-17T02:24:59.094Z,3.70
2019-01-17T02:27:28.020Z,3.70
2019-01-17T02:29:57.014Z,3.60
2019-01-17T02:32:26.043Z,3.60
2019-01-17T02:34:55.059Z,3.60
2019-01-17T02:37:23.988Z,3.60
2019-01-17T02:39:53.075Z,3.50
2019-01-17T02:42:22.007Z,3.50
2019-01-17T02:44:51.968Z,3.60
2019-01-17T02:47:20.901Z,3.60
2019-01-17T02:49:49.890Z,3.60
2019-01-17T02:52:18.828Z,3.60
2019-01-17T02:54:47.813Z,3.80
2019-01-17T02:57:16.734Z,3.80
2019-01-17T02:59:45.841Z,3.80
2019-01-17T03:02:14.866Z,3.80
2019-01-17T03:04:43.962Z,3.70
2019-01-17T03:07:12.896Z,3.70
2019-01-17T03:09:41.895Z,3.70
2019-01-17T03:12:10.832Z,3.60
2019-01-17T03:14:39.832Z,3.60
2019-01-17T03:17:08.766Z,3.60
2019-01-17T03:19:37.754Z,3.50
2019-01-17T03:22:06.789Z,3.50
2019-01-17T03:24:42.726Z,3.60
2019-01-17T03:27:06.270Z,3.60
2019-01-17T03:29:35.206Z,3.70
2019-01-17T03:32:04.282Z,3.70
2019-01-17T03:34:33.214Z,3.70
2019-01-17T03:37:02.207Z,3.70
2019-01-17T03:39:31.130Z,3.70
2019-01-17T03:42:00.124Z,3.80
2019-01-17T03:44:29.154Z,3.90
2019-01-17T03:46:58.146Z,3.90
2019-01-17T03:49:27.085Z,3.90
2019-01-17T03:51:56.193Z,4.00
2019-01-17T03:54:25.187Z,4.00
2019-01-17T03:56:54.328Z,4.00
2019-01-17T03:59:23.256Z,4.10
2019-01-17T04:01:52.265Z,4.10
2019-01-17T04:04:21.305Z,4.10
2019-01-17T04:06:50.301Z,4.20
2019-01-17T04:09:19.335Z,4.20
2019-01-17T04:11:48.444Z,4.20
2019-01-17T04:14:17.372Z,4.20
2019-01-17T04:16:46.366Z,4.20
2019-01-17T04:19:15.382Z,4.20
2019-01-17T04:21:44.512Z,4.10
2019-01-17T04:24:13.429Z,4.10
2019-01-17T04:26:42.466Z,4.10
2019-01-17T04:29:11.544Z,3.90
2019-01-17T04:31:40.573Z,3.80
2019-01-17T04:34:09.567Z,3.70
2019-01-17T04:36:38.509Z,3.80
2019-01-17T04:39:07.614Z,3.80
2019-01-17T04:41:36.540Z,3.80
2019-01-17T04:44:05.647Z,3.90
2019-01-17T04:46:34.579Z,3.90
2019-01-17T04:49:03.675Z,4.00
2019-01-17T04:51:32.607Z,4.00
2019-01-17T04:54:01.702Z,4.00
2019-01-17T04:56:30.639Z,3.90
2019-01-17T04:58:59.640Z,4.00
2019-01-17T05:01:28.570Z,4.00
2019-01-17T05:03:57.763Z,4.10
2019-01-17T05:06:26.797Z,4.20
2019-01-17T05:08:55.889Z,4.30
2019-01-17T05:11:24.932Z,4.20
2019-01-17T05:13:53.914Z,4.20
2019-01-17T05:16:22.946Z,4.30
2019-01-17T05:18:51.936Z,4.40
2019-01-17T05:21:20.861Z,4.50
2019-01-17T05:23:49.876Z,4.50
2019-01-17T05:26:21.648Z,4.60
2019-01-17T05:28:50.647Z,4.60
2019-01-17T05:31:19.570Z,4.70
2019-01-17T05:33:48.579Z,4.80
2019-01-17T05:36:17.520Z,4.70
2019-01-17T05:38:48.029Z,4.70
2019-01-17T05:41:17.039Z,4.70
2019-01-17T05:43:46.064Z,4.70
2019-01-17T05:46:15.068Z,4.70
2019-01-17T05:48:44.004Z,4.80
2019-01-17T05:51:13.115Z,4.80
2019-01-17T05:53:42.250Z,4.80
2019-01-17T05:56:11.345Z,4.90
2019-01-17T05:58:40.370Z,4.90
2019-01-17T06:01:09.515Z,4.90
2019-01-17T06:03:38.598Z,4.90
2019-01-17T06:06:07.706Z,5.00
2019-01-17T06:08:36.748Z,5.00
2019-01-17T06:11:05.956Z,5.00
2019-01-17T06:13:35.086Z,5.00
2019-01-17T06:16:04.796Z,5.00
2019-01-17T06:18:33.825Z,5.00
2019-01-17T06:21:02.840Z,5.00
2019-01-17T06:23:31.769Z,5.00
2019-01-17T06:26:00.856Z,4.90
2019-01-17T06:28:29.788Z,4.90
2019-01-17T06:30:58.818Z,4.80
2019-01-17T06:33:27.830Z,4.80
2019-01-17T06:35:56.939Z,4.90
2019-01-17T06:38:25.880Z,4.90
2019-01-17T06:40:54.871Z,4.80
2019-01-17T06:43:23.807Z,4.90
2019-01-17T06:45:52.800Z,4.90
2019-01-17T06:48:21.832Z,4.90
2019-01-17T06:50:50.821Z,4.90
2019-01-17T06:53:20.066Z,4.90
2019-01-17T06:55:49.068Z,5.00
2019-01-17T06:58:18.095Z,5.00
2019-01-17T07:00:47.127Z,4.90
2019-01-17T07:03:16.242Z,5.00
2019-01-17T07:05:45.293Z,5.00
2019-01-17T07:08:14.375Z,4.90
2019-01-17T07:10:43.440Z,5.10
2019-01-17T07:13:12.408Z,5.30
2019-01-17T07:15:41.442Z,5.30
2019-01-17T07:18:10.550Z,5.40
2019-01-17T07:20:39.496Z,5.50
2019-01-17T07:23:08.486Z,5.50
2019-01-17T07:25:40.965Z,5.60
2019-01-17T07:28:09.294Z,5.60
2019-01-17T07:30:38.230Z,5.70
2019-01-17T07:33:07.312Z,5.70
2019-01-17T07:35:37.419Z,5.70
2019-01-17T07:38:06.435Z,5.70
2019-01-17T07:40:35.373Z,5.60
2019-01-17T07:43:04.379Z,5.60
2019-01-17T07:45:33.314Z,5.60
2019-01-17T07:48:02.316Z,5.60
2019-01-17T07:50:31.262Z,5.60
2019-01-17T07:53:00.211Z,5.60
2019-01-17T07:55:29.289Z,5.70
2019-01-17T07:57:58.207Z,5.60
2019-01-17T08:00:27.212Z,5.60
2019-01-17T08:02:56.126Z,5.70
2019-01-17T08:05:25.229Z,5.60
2019-01-17T08:07:55.792Z,5.50
2019-01-17T08:10:24.906Z,5.40
2019-01-17T08:12:53.939Z,5.40
2019-01-17T08:15:23.063Z,5.40
2019-01-17T08:17:52.102Z,5.40
2019-01-17T08:20:22.887Z,5.40
2019-01-17T08:22:51.831Z,5.40
2019-01-17T08:25:20.939Z,5.40
2019-01-17T08:27:49.864Z,5.40
2019-01-17T08:30:21.154Z,5.40
2019-01-17T08:32:50.281Z,5.40
2019-01-17T08:35:19.275Z,5.50
2019-01-17T08:37:48.324Z,5.50
2019-01-17T08:40:31.100Z,5.60
2019-01-17T08:43:00.035Z,5.70
2019-01-17T08:45:29.138Z,5.80
2019-01-17T08:47:58.203Z,5.80
2019-01-17T08:50:28.014Z,5.80
2019-01-17T08:52:57.293Z,5.80
2019-01-17T08:55:26.354Z,5.90
2019-01-17T08:57:55.339Z,6.00
2019-01-17T09:00:26.861Z,6.00
2019-01-17T09:02:55.850Z,6.00
2019-01-17T09:05:24.769Z,6.10
2019-01-17T09:07:53.882Z,6.10
2019-01-17T09:10:25.252Z,6.20
2019-01-17T09:12:54.335Z,6.20
2019-01-17T09:15:29.204Z,6.20
2019-01-17T09:17:58.219Z,6.30
2019-01-17T09:20:27.421Z,6.40
2019-01-17T09:22:56.398Z,6.40
2019-01-17T09:25:25.432Z,6.50
2019-01-17T09:27:54.537Z,6.50
2019-01-17T09:30:23.571Z,6.50
2019-01-17T09:32:52.670Z,6.40
2019-01-17T09:35:21.813Z,6.40
2019-01-17T09:37:50.906Z,6.30
2019-01-17T09:40:23.394Z,6.30
2019-01-17T09:42:52.477Z,6.30
2019-01-17T09:45:21.524Z,6.30
2019-01-17T09:47:50.710Z,6.40
2019-01-17T09:50:21.646Z,6.40
2019-01-17T09:52:50.734Z,6.40
2019-01-17T09:55:19.652Z,6.40
2019-01-17T09:57:48.636Z,6.40
2019-01-17T10:00:26.576Z,6.50
2019-01-17T10:02:57.919Z,6.60
2019-01-17T10:05:26.499Z,6.70
2019-01-17T10:07:55.493Z,6.70
2019-01-17T10:10:25.630Z,6.70
2019-01-17T10:12:54.572Z,6.80
2019-01-17T10:15:29.758Z,6.80
2019-01-17T10:18:27.094Z,6.90
2019-01-17T10:21:15.264Z,7.00
2019-01-17T10:23:53.217Z,7.00
2019-01-17T10:26:33.974Z,7.00
2019-01-17T10:29:20.259Z,6.90
2019-01-17T10:32:04.921Z,7.00
2019-01-17T10:34:51.449Z,6.90
2019-01-17T10:37:32.209Z,6.90
2019-01-17T10:40:13.463Z,6.90
2019-01-17T10:42:51.181Z,6.90
2019-01-17T10:45:31.889Z,6.80
2019-01-17T10:48:09.760Z,6.80
2019-01-17T10:50:47.583Z,6.80
2019-01-17T10:53:19.757Z,6.80
2019-01-17T10:56:03.813Z,6.90
2019-01-17T10:58:38.672Z,6.90
2019-01-17T11:01:10.904Z,6.90
2019-01-17T11:03:57.668Z,6.80
2019-01-17T11:06:41.519Z,6.90
2019-01-17T11:09:25.366Z,6.90
2019-01-17T11:12:13.670Z,6.90
2019-01-17T11:14:51.774Z,6.90
2019-01-17T11:17:39.078Z,6.90
2019-01-17T11:20:17.206Z,6.90
2019-01-17T11:22:55.080Z,6.80
2019-01-17T11:25:27.199Z,6.90
2019-01-17T11:28:11.114Z,6.80
2019-01-17T11:30:46.318Z,6.80
2019-01-17T11:33:27.131Z,6.80
2019-01-17T11:36:14.148Z,6.70
2019-01-17T11:39:00.846Z,6.70
2019-01-17T11:41:32.962Z,6.70
2019-01-17T11:44:08.053Z,6.60
2019-01-17T11:47:16.391Z,6.60
2019-01-17T11:49:56.904Z,6.60
2019-01-17T11:52:34.749Z,6.50
2019-01-17T11:55:21.808Z,6.50
2019-01-17T11:58:11.839Z,6.40
2019-01-17T12:01:01.636Z,6.40
2019-01-17T12:03:45.947Z,6.40
2019-01-17T12:06:15.010Z,6.40
2019-01-17T12:08:44.002Z,6.50
2019-01-17T12:11:12.930Z,6.40
2019-01-17T12:13:41.932Z,6.40
2019-01-17T12:16:10.962Z,6.40
2019-01-17T12:18:40.063Z,6.40
2019-01-17T12:21:08.996Z,6.30
2019-01-17T12:23:37.990Z,6.40
2019-01-17T12:26:07.032Z,6.40
2019-01-17T12:28:36.026Z,6.50
2019-01-17T12:31:04.955Z,6.50
2019-01-17T12:33:33.952Z,6.50
2019-01-17T12:36:02.872Z,6.40
2019-01-17T12:38:31.871Z,6.30
2019-01-17T12:41:00.896Z,5.90
2019-01-17T12:43:29.912Z,5.50
2019-01-17T12:45:58.928Z,5.20
2019-01-17T12:48:27.944Z,5.00
2019-01-17T12:50:56.970Z,4.80
2019-01-17T12:53:26.003Z,4.70
2019-01-17T12:55:55.023Z,4.60
2019-01-17T12:58:24.027Z,4.60
2019-01-17T13:00:52.960Z,4.60
2019-01-17T13:03:22.052Z,4.60
2019-01-17T13:05:50.980Z,4.70
2019-01-17T13:08:19.961Z,4.70
2019-01-17T13:10:48.910Z,4.70
2019-01-17T13:13:17.895Z,4.70
2019-01-17T13:15:46.841Z,4.80
2019-01-17T13:18:15.955Z,4.90
2019-01-17T13:20:45.129Z,4.90
2019-01-17T13:23:14.220Z,5.00
2019-01-17T13:25:43.250Z,5.00
2019-01-17T13:28:12.341Z,5.00
2019-01-17T13:30:41.353Z,5.10
2019-01-17T13:33:10.343Z,5.10
2019-01-17T13:35:39.377Z,5.10
2019-01-17T13:38:08.411Z,5.20
2019-01-17T13:40:37.558Z,5.20
2019-01-17T13:43:06.642Z,5.20
2019-01-17T13:45:35.685Z,5.20
2019-01-17T13:48:04.720Z,5.20
2019-01-17T13:50:34.474Z,5.20
2019-01-17T13:53:03.564Z,5.20
2019-01-17T13:55:32.664Z,5.20
2019-01-17T13:58:01.723Z,5.20
2019-01-17T14:00:30.825Z,5.30
2019-01-17T14:02:59.860Z,5.30
2019-01-17T14:05:28.977Z,5.20
2019-01-17T14:07:58.011Z,5.30
2019-01-17T14:10:27.124Z,5.30
2019-01-17T14:12:56.156Z,5.30
2019-01-17T14:15:30.518Z,5.40
2019-01-17T14:17:59.555Z,5.30
2019-01-17T14:20:28.586Z,5.30
2019-01-17T14:22:57.532Z,5.30
2019-01-17T14:25:26.535Z,5.30
2019-01-17T14:27:55.471Z,5.20
2019-01-17T14:30:30.342Z,5.20
2019-01-17T14:32:59.250Z,5.20
2019-01-17T14:35:28.225Z,5.20
2019-01-17T14:37:57.248Z,5.20
2019-01-17T14:40:26.357Z,5.20
2019-01-17T14:42:55.280Z,5.20
2019-01-17T14:45:24.279Z,5.30
2019-01-17T14:47:53.192Z,5.40
2019-01-17T14:50:24.483Z,5.40
2019-01-17T14:52:53.634Z,5.40
2019-01-17T14:55:22.725Z,5.30
2019-01-17T14:57:51.657Z,5.20
2019-01-17T15:00:29.292Z,5.20
2019-01-17T15:02:58.220Z,5.10
2019-01-17T15:05:27.314Z,5.10
2019-01-17T15:07:56.476Z,5.20
2019-01-17T15:10:28.576Z,5.20
2019-01-17T15:12:57.631Z,5.30
2019-01-17T15:15:26.732Z,5.30
2019-01-17T15:17:55.774Z,5.20
2019-01-17T15:20:24.874Z,5.20
2019-01-17T15:22:53.895Z,5.10
2019-01-17T15:25:23.017Z,5.10
2019-01-17T15:27:51.973Z,5.00
2019-01-17T15:30:25.808Z,4.90
2019-01-17T15:32:55.050Z,4.80
2019-01-17T15:35:24.094Z,4.80
2019-01-17T15:37:53.227Z,4.70
2019-01-17T15:40:26.969Z,4.60
2019-01-17T15:42:56.164Z,4.50
2019-01-17T15:45:25.194Z,4.40
2019-01-17T15:47:54.344Z,4.40
2019-01-17T15:50:23.347Z,4.40
2019-01-17T15:52:52.356Z,4.50
2019-01-17T15:55:21.371Z,4.60
2019-01-17T15:57:50.467Z,4.60
2019-01-17T16:00:24.880Z,4.70
2019-01-17T16:02:53.994Z,4.70
2019-01-17T16:05:23.033Z,4.70
2019-01-17T16:07:52.024Z,4.60
2019-01-17T16:10:21.051Z,4.50
2019-01-17T16:12:50.077Z,4.50
2019-01-17T16:15:23.881Z,4.50
2019-01-17T16:17:52.924Z,4.50
2019-01-17T16:20:21.873Z,4.50
2019-01-17T16:22:50.991Z,4.50
2019-01-17T16:25:19.960Z,4.50
2019-01-17T16:27:53.008Z,4.50
2019-01-17T16:30:28.031Z,4.30
2019-01-17T16:32:57.031Z,4.10
2019-01-17T16:35:25.951Z,3.90
2019-01-17T16:37:55.045Z,3.80
2019-01-17T16:40:23.994Z,3.80
2019-01-17T16:42:53.134Z,3.70
2019-01-17T16:45:23.676Z,3.70
2019-01-17T16:47:52.850Z,3.70
2019-01-17T16:50:24.230Z,3.70
2019-01-17T16:52:53.219Z,3.70
2019-01-17T16:55:22.351Z,3.90
2019-01-17T16:57:51.344Z,4.00
2019-01-17T17:00:37.674Z,4.10
2019-01-17T17:06:34.878Z,4.20
2019-01-17T17:09:05.365Z,4.20
2019-01-17T17:11:34.416Z,4.20
2019-01-17T17:14:03.499Z,4.20
2019-01-17T17:16:32.554Z,4.20
2019-01-17T17:19:01.549Z,4.20
2019-01-17T17:21:30.755Z,4.20
2019-01-17T17:23:59.843Z,4.20
2019-01-17T17:26:28.766Z,4.20
2019-01-17T17:28:57.751Z,4.30
2019-01-17T17:31:26.798Z,4.30
2019-01-17T17:33:57.148Z,4.30
2019-01-17T17:36:26.032Z,4.40
2019-01-17T17:38:55.026Z,4.40
2019-01-17T17:41:24.263Z,4.40
2019-01-17T17:43:53.390Z,4.30
2019-01-17T17:46:22.318Z,4.40
2019-01-17T17:48:51.361Z,4.40
2019-01-17T17:51:20.439Z,4.40
2019-01-17T17:53:49.371Z,4.40
2019-01-17T17:56:18.471Z,4.40
2019-01-17T17:58:47.404Z,4.40
2019-01-17T18:01:17.285Z,4.40
2019-01-17T18:03:46.346Z,4.50
2019-01-17T18:06:15.315Z,4.40
2019-01-17T18:08:44.342Z,4.40
2019-01-17T18:11:13.346Z,4.40
2019-01-17T18:13:42.371Z,4.30
2019-01-17T18:16:11.357Z,4.30
2019-01-17T18:18:40.517Z,4.10
2019-01-17T18:21:09.623Z,4.00
2019-01-17T18:23:38.550Z,3.80
2019-01-17T18:26:07.531Z,3.80
2019-01-17T18:28:36.769Z,3.70
2019-01-17T18:31:05.781Z,3.70
2019-01-17T18:33:37.690Z,3.60
2019-01-17T18:36:06.895Z,3.60
2019-01-17T18:38:36.968Z,3.60
2019-01-17T18:41:05.954Z,3.60
2019-01-17T18:43:34.975Z,3.50
2019-01-17T18:46:03.983Z,3.50
2019-01-17T18:48:32.883Z,3.40
2019-01-17T18:51:01.918Z,3.50
2019-01-17T18:53:31.009Z,3.40
2019-01-17T18:55:59.919Z,3.40
2019-01-17T18:58:28.914Z,3.40
2019-01-17T19:00:57.951Z,3.30
2019-01-17T19:03:26.942Z,3.20
2019-01-17T19:06:10.533Z,3.10
2019-01-17T19:08:36.921Z,3.10
2019-01-17T19:11:09.047Z,3.00
2019-01-17T19:13:49.891Z,3.00
2019-01-17T19:16:18.898Z,2.90
2019-01-17T19:18:47.884Z,2.70
2019-01-17T19:21:16.835Z,2.60
2019-01-17T19:23:45.947Z,2.50
2019-01-17T19:26:14.876Z,2.40
2019-01-17T19:28:44.046Z,2.40
2019-01-17T19:31:13.200Z,2.40
2019-01-17T19:33:42.155Z,2.30
2019-01-17T19:36:11.135Z,2.20
2019-01-17T19:38:40.086Z,2.20
2019-01-17T19:41:09.000Z,2.40
2019-01-17T19:43:37.984Z,2.40
2019-01-17T19:46:07.002Z,2.40
2019-01-17T19:48:36.004Z,2.40
2019-01-17T19:51:04.928Z,2.40
2019-01-17T19:53:33.930Z,2.40
2019-01-17T19:56:02.951Z,2.40
2019-01-17T19:58:31.937Z,2.50
2019-01-17T20:01:00.957Z,2.40
2019-01-17T20:03:30.155Z,2.40
2019-01-17T20:05:59.074Z,2.40
2019-01-17T20:08:28.161Z,2.40
2019-01-17T20:10:57.104Z,2.40
2019-01-17T20:13:26.213Z,2.40
2019-01-17T20:15:55.241Z,2.50
2019-01-17T20:18:24.243Z,2.50
2019-01-17T20:20:53.262Z,2.60
2019-01-17T20:23:22.274Z,2.60
2019-01-17T20:25:51.191Z,2.60
2019-01-17T20:28:20.282Z,2.60
2019-01-17T20:30:49.206Z,2.60
2019-01-17T20:33:18.240Z,2.70
2019-01-17T20:35:47.264Z,2.70
2019-01-17T20:38:16.204Z,2.70
2019-01-17T20:40:45.190Z,2.70
2019-01-17T20:43:14.111Z,2.70
2019-01-17T20:45:43.197Z,2.70
2019-01-17T20:48:12.342Z,2.70
2019-01-17T20:50:41.526Z,2.70
2019-01-17T20:53:10.454Z,2.70
2019-01-17T20:55:39.448Z,2.60
2019-01-17T20:58:08.371Z,2.70
2019-01-17T21:00:46.111Z,2.70
2019-01-17T21:03:16.951Z,2.70
2019-01-17T21:05:45.945Z,2.70
2019-01-17T21:08:14.862Z,2.60
2019-01-17T21:10:44.066Z,2.70
2019-01-17T21:13:12.994Z,2.70
2019-01-17T21:15:42.064Z,2.70
2019-01-17T21:18:10.991Z,2.60
2019-01-17T21:20:39.986Z,2.60
2019-01-17T21:23:08.905Z,2.60
2019-01-17T21:25:37.890Z,2.60
2019-01-17T21:28:06.818Z,2.60
2019-01-17T21:30:35.799Z,2.50
2019-01-17T21:33:07.080Z,2.40
2019-01-17T21:35:35.236Z,2.40
2019-01-17T21:38:04.159Z,2.40
2019-01-17T21:40:33.149Z,2.30
2019-01-17T21:43:02.081Z,2.30
2019-01-17T21:45:31.183Z,2.20
2019-01-17T21:48:00.092Z,2.20
2019-01-17T21:50:31.343Z,2.10
2019-01-17T21:53:00.267Z,2.10
2019-01-17T21:55:29.261Z,2.10
2019-01-17T21:57:58.175Z,2.10
2019-01-17T22:00:29.365Z,2.10
2019-01-17T22:02:58.491Z,2.10
2019-01-17T22:05:27.411Z,2.00
2019-01-17T22:07:56.409Z,2.00
2019-01-17T22:10:25.337Z,2.00
2019-01-17T22:12:54.336Z,2.00
2019-01-17T22:15:27.030Z,1.90
2019-01-17T22:17:56.131Z,1.90
2019-01-17T22:20:25.056Z,1.90
2019-01-17T22:22:54.164Z,1.90
2019-01-17T22:25:23.083Z,1.90
2019-01-17T22:27:53.372Z,1.90
2019-01-17T22:30:27.692Z,1.90
2019-01-17T22:32:56.886Z,2.00
2019-01-17T22:35:25.911Z,1.90
2019-01-17T22:37:54.900Z,2.00
2019-01-17T22:40:23.939Z,1.90
2019-01-17T22:42:52.915Z,1.90
2019-01-17T22:45:30.372Z,1.90
2019-01-17T22:47:59.370Z,1.90
2019-01-17T22:50:28.307Z,1.80
2019-01-17T22:52:57.307Z,1.80
2019-01-17T22:55:26.326Z,1.70
2019-01-17T22:57:55.422Z,1.60
2019-01-17T23:00:52.423Z,1.50
2019-01-17T23:03:24.089Z,1.40
2019-01-17T23:05:53.008Z,1.40
2019-01-17T23:08:22.002Z,1.40
2019-01-17T23:10:50.927Z,1.40
2019-01-17T23:13:19.912Z,1.40
2019-01-17T23:15:48.843Z,1.40
2019-01-17T23:18:17.785Z,1.40
2019-01-17T23:20:46.761Z,1.50
2019-01-17T23:23:15.689Z,1.50
2019-01-17T23:25:44.683Z,1.50
2019-01-17T23:28:13.617Z,1.50
2019-01-17T23:30:42.596Z,1.50
2019-01-17T23:33:11.525Z,1.50
2019-01-17T23:35:40.523Z,1.50
2019-01-17T23:38:09.456Z,1.50
2019-01-17T23:40:38.451Z,1.50
2019-01-17T23:43:07.374Z,1.40
2019-01-17T23:45:36.350Z,1.50
2019-01-17T23:48:05.274Z,1.50
2019-01-17T23:50:34.268Z,1.50
2019-01-17T23:53:03.204Z,1.40
2019-01-17T23:55:32.194Z,1.50
2019-01-17T23:58:01.118Z,1.50
